createdAt,value
2023-07-23T00:01:24.703Z,70.89
2023-07-23T00:03:51.512Z,71.09
2023-07-23T00:06:18.458Z,70.52
2023-07-23T00:08:45.185Z,70.42
2023-07-23T00:11:11.868Z,70.77
2023-07-23T00:13:39.037Z,70.54
2023-07-23T00:16:06.299Z,70.80
2023-07-23T00:18:32.969Z,70.66
2023-07-23T00:20:59.718Z,70.04
2023-07-23T00:23:26.413Z,70.94
2023-07-23T00:25:53.270Z,70.73
2023-07-23T00:28:20.012Z,70.71
2023-07-23T00:30:46.700Z,70.71
2023-07-23T00:33:13.932Z,69.90
2023-07-23T00:35:40.662Z,70.62
2023-07-23T00:38:07.312Z,70.93
2023-07-23T00:40:33.962Z,70.48
2023-07-23T00:43:00.735Z,70.59
2023-07-23T00:45:27.485Z,70.33
2023-07-23T00:47:54.284Z,70.47
2023-07-23T00:50:21.389Z,69.87
2023-07-23T00:52:48.139Z,71.02
2023-07-23T00:55:14.946Z,70.63
2023-07-23T00:57:41.670Z,70.42
2023-07-23T01:00:09.129Z,70.23
2023-07-23T01:02:35.941Z,70.73
2023-07-23T01:05:03.669Z,70.70
2023-07-23T01:07:31.292Z,70.90
2023-07-23T01:09:58.480Z,70.19
2023-07-23T01:12:25.421Z,70.34
2023-07-23T01:14:52.117Z,70.67
2023-07-23T01:17:19.748Z,70.54
2023-07-23T01:19:47.462Z,70.78
2023-07-23T01:22:14.190Z,70.60
2023-07-23T01:24:40.977Z,70.70
2023-07-23T01:27:08.053Z,71.67
2023-07-23T01:29:34.789Z,70.28
2023-07-23T01:32:01.476Z,70.49
2023-07-23T01:34:28.684Z,69.81
2023-07-23T01:36:55.399Z,70.52
2023-07-23T01:39:22.166Z,70.81
2023-07-23T01:41:49.578Z,70.78
2023-07-23T01:44:16.505Z,70.81
2023-07-23T01:46:43.172Z,70.98
2023-07-23T01:49:09.952Z,71.08
2023-07-23T01:51:36.714Z,71.25
2023-07-23T01:54:03.767Z,70.74
2023-07-23T01:56:30.468Z,70.76
2023-07-23T01:58:57.309Z,70.28
2023-07-23T02:01:24.538Z,70.07
2023-07-23T02:03:51.317Z,70.44
2023-07-23T02:06:17.991Z,70.78
2023-07-23T02:08:44.745Z,70.35
2023-07-23T02:11:11.459Z,70.76
2023-07-23T02:13:38.144Z,70.69
2023-07-23T02:16:05.221Z,70.33
2023-07-23T02:18:32.279Z,70.30
2023-07-23T02:20:58.923Z,70.70
2023-07-23T02:23:25.824Z,70.48
2023-07-23T02:25:52.627Z,70.38
2023-07-23T02:28:19.431Z,70.69
2023-07-23T02:30:46.117Z,70.61
2023-07-23T02:33:12.852Z,71.45
2023-07-23T02:35:39.714Z,71.46
2023-07-23T02:38:06.517Z,71.72
2023-07-23T02:40:34.620Z,71.71
2023-07-23T02:43:02.482Z,72.00
2023-07-23T02:45:30.446Z,71.51
2023-07-23T02:47:57.444Z,71.40
2023-07-23T02:50:24.400Z,70.69
2023-07-23T02:52:51.186Z,70.71
2023-07-23T02:55:17.871Z,70.44
2023-07-23T02:57:44.566Z,70.50
2023-07-23T03:00:12.892Z,71.03
2023-07-23T03:02:39.821Z,71.19
2023-07-23T03:05:07.246Z,70.75
2023-07-23T03:07:35.503Z,71.96
2023-07-23T03:10:02.202Z,71.30
2023-07-23T03:12:30.070Z,71.09
2023-07-23T03:14:56.745Z,70.91
2023-07-23T03:17:23.912Z,71.03
2023-07-23T03:19:50.604Z,71.25
2023-07-23T03:22:17.282Z,71.53
2023-07-23T03:24:44.005Z,72.01
2023-07-23T03:27:10.762Z,71.74
2023-07-23T03:29:37.353Z,71.45
2023-07-23T03:32:04.460Z,71.28
2023-07-23T03:34:31.818Z,70.72
2023-07-23T03:36:58.557Z,71.06
2023-07-23T03:39:25.232Z,71.24
2023-07-23T03:41:52.029Z,72.06
2023-07-23T03:44:18.847Z,71.74
2023-07-23T03:46:58.681Z,71.36
2023-07-23T03:49:25.346Z,71.58
2023-07-23T03:51:51.994Z,71.26
2023-07-23T03:54:18.726Z,71.50
2023-07-23T03:56:45.387Z,72.09
2023-07-23T03:59:12.107Z,71.30
2023-07-23T04:01:38.814Z,71.17
2023-07-23T04:04:05.605Z,72.01
2023-07-23T04:06:32.319Z,72.02
2023-07-23T04:08:59.053Z,71.13
2023-07-23T04:11:25.935Z,72.38
2023-07-23T04:13:53.041Z,71.60
2023-07-23T04:16:19.822Z,71.69
2023-07-23T04:18:51.923Z,72.22
2023-07-23T04:21:19.805Z,72.54
2023-07-23T04:23:47.816Z,73.14
2023-07-23T04:26:15.799Z,72.23
2023-07-23T04:28:42.557Z,72.10
2023-07-23T04:31:09.864Z,71.83
2023-07-23T04:33:36.998Z,71.97
2023-07-23T04:36:05.179Z,71.03
2023-07-23T04:38:31.879Z,70.94
2023-07-23T04:40:58.530Z,70.74
2023-07-23T04:43:25.612Z,70.04
2023-07-23T04:45:52.400Z,70.40
2023-07-23T04:48:19.176Z,71.09
2023-07-23T04:50:45.899Z,71.08
2023-07-23T04:53:12.726Z,70.69
2023-07-23T04:55:39.345Z,71.74
2023-07-23T04:58:06.106Z,71.29
2023-07-23T05:00:32.737Z,70.63
2023-07-23T05:02:59.404Z,70.45
2023-07-23T05:05:26.034Z,69.30
2023-07-23T05:07:52.832Z,69.45
2023-07-23T05:10:19.546Z,70.45
2023-07-23T05:12:46.380Z,70.11
2023-07-23T05:15:14.492Z,69.59
2023-07-23T05:17:42.513Z,69.24
2023-07-23T05:20:10.244Z,69.80
2023-07-23T05:22:38.478Z,70.44
2023-07-23T05:25:05.547Z,70.78
2023-07-23T05:27:32.472Z,69.79
2023-07-23T05:29:59.333Z,68.78
2023-07-23T05:32:26.234Z,69.30
2023-07-23T05:34:54.642Z,68.35
2023-07-23T05:37:21.457Z,68.88
2023-07-23T05:39:49.382Z,68.64
2023-07-23T05:42:16.110Z,70.15
2023-07-23T05:44:42.759Z,69.49
2023-07-23T05:47:09.600Z,69.31
2023-07-23T05:49:36.276Z,68.67
2023-07-23T05:52:03.732Z,68.98
2023-07-23T05:54:30.369Z,68.94
2023-07-23T05:56:57.108Z,68.33
2023-07-23T05:59:24.095Z,68.51
2023-07-23T06:01:50.842Z,68.97
2023-07-23T06:04:17.543Z,69.46
2023-07-23T06:06:44.365Z,68.79
2023-07-23T06:09:11.053Z,68.87
2023-07-23T06:11:37.850Z,68.38
2023-07-23T06:14:04.458Z,67.81
2023-07-23T06:16:31.738Z,67.55
2023-07-23T06:18:59.055Z,67.31
2023-07-23T06:21:26.467Z,66.93
2023-07-23T06:23:53.908Z,66.43
2023-07-23T06:26:20.759Z,67.47
2023-07-23T06:28:47.389Z,67.16
2023-07-23T06:31:14.085Z,66.81
2023-07-23T06:33:40.875Z,66.71
2023-07-23T06:36:07.573Z,66.85
2023-07-23T06:38:34.177Z,68.85
2023-07-23T06:41:00.889Z,67.41
2023-07-23T06:43:27.514Z,67.03
2023-07-23T06:45:54.258Z,67.27
2023-07-23T06:48:21.859Z,66.99
2023-07-23T06:50:48.890Z,65.44
2023-07-23T06:53:15.980Z,65.70
2023-07-23T06:56:02.357Z,65.97
2023-07-23T06:58:30.718Z,65.46
2023-07-23T07:00:58.992Z,65.88
2023-07-23T07:03:26.248Z,64.71
2023-07-23T07:05:52.925Z,64.86
2023-07-23T07:08:19.661Z,64.59
2023-07-23T07:10:47.668Z,64.92
2023-07-23T07:13:15.091Z,64.76
2023-07-23T07:15:42.578Z,64.33
2023-07-23T07:18:09.498Z,64.33
2023-07-23T07:20:36.142Z,63.89
2023-07-23T07:23:02.985Z,64.37
2023-07-23T07:25:29.718Z,64.22
2023-07-23T07:27:56.458Z,64.25
2023-07-23T07:30:23.047Z,63.87
2023-07-23T07:32:49.914Z,63.43
2023-07-23T07:35:16.591Z,63.01
2023-07-23T07:37:43.268Z,63.97
2023-07-23T07:40:11.782Z,63.29
2023-07-23T07:42:38.621Z,62.29
2023-07-23T07:45:05.943Z,62.40
2023-07-23T07:47:32.684Z,62.56
2023-07-23T07:49:59.547Z,63.15
2023-07-23T07:52:26.281Z,62.96
2023-07-23T07:54:53.775Z,62.31
2023-07-23T07:57:20.739Z,62.43
2023-07-23T07:59:47.675Z,62.73
2023-07-23T08:02:14.659Z,63.44
2023-07-23T08:04:41.722Z,62.73
2023-07-23T08:07:09.032Z,60.92
2023-07-23T08:09:36.054Z,61.11
2023-07-23T08:12:03.195Z,61.89
2023-07-23T08:14:30.885Z,61.18
2023-07-23T08:16:57.882Z,61.47
2023-07-23T08:19:24.823Z,60.84
2023-07-23T08:21:51.786Z,59.69
2023-07-23T08:24:18.826Z,58.53
2023-07-23T08:26:48.379Z,57.92
2023-07-23T08:29:15.137Z,59.16
2023-07-23T08:31:42.313Z,57.25
2023-07-23T08:34:09.133Z,58.92
2023-07-23T08:36:36.146Z,59.03
2023-07-23T08:39:03.300Z,59.50
2023-07-23T08:41:38.941Z,57.81
2023-07-23T08:44:28.482Z,57.81
2023-07-23T08:47:11.513Z,58.51
2023-07-23T08:49:42.925Z,56.77
2023-07-23T08:52:13.294Z,57.04
2023-07-23T08:54:43.313Z,57.23
2023-07-23T08:57:10.590Z,57.77
2023-07-23T08:59:38.429Z,57.20
2023-07-23T09:02:06.120Z,56.77
2023-07-23T09:04:32.821Z,56.70
2023-07-23T09:07:01.240Z,56.10
2023-07-23T09:09:28.148Z,57.75
2023-07-23T09:11:54.827Z,57.40
2023-07-23T09:14:21.475Z,57.00
2023-07-23T09:16:50.066Z,57.20
2023-07-23T09:19:27.905Z,58.04
2023-07-23T09:22:01.079Z,56.91
2023-07-23T09:24:34.682Z,56.75
2023-07-23T09:27:03.066Z,56.89
2023-07-23T09:29:36.771Z,56.95
2023-07-23T09:32:03.722Z,56.57
2023-07-23T09:34:30.325Z,56.23
2023-07-23T09:36:57.134Z,56.70
2023-07-23T09:39:27.283Z,57.16
2023-07-23T09:41:53.854Z,55.76
2023-07-23T09:44:25.889Z,55.96
2023-07-23T09:46:52.641Z,55.86
2023-07-23T09:49:25.125Z,56.78
2023-07-23T09:51:52.982Z,56.98
2023-07-23T09:54:21.495Z,56.77
2023-07-23T09:56:49.099Z,56.53
2023-07-23T09:59:16.075Z,54.11
2023-07-23T10:01:43.068Z,53.96
2023-07-23T10:04:11.689Z,55.09
2023-07-23T10:06:38.956Z,54.19
2023-07-23T10:09:07.119Z,54.61
2023-07-23T10:11:34.965Z,54.10
2023-07-23T10:14:03.476Z,54.72
2023-07-23T10:16:34.750Z,53.58
2023-07-23T10:19:01.953Z,53.66
2023-07-23T10:21:34.808Z,53.62
2023-07-23T10:24:02.831Z,54.84
2023-07-23T10:26:31.042Z,54.57
2023-07-23T10:29:19.881Z,54.29
2023-07-23T10:31:47.200Z,54.30
2023-07-23T10:34:23.051Z,55.38
2023-07-23T10:37:15.512Z,55.09
2023-07-23T10:39:44.299Z,53.80
2023-07-23T10:42:11.044Z,55.02
2023-07-23T10:44:40.876Z,53.24
2023-07-23T10:47:32.917Z,55.08
2023-07-23T10:50:10.351Z,53.38
2023-07-23T10:52:37.138Z,52.73
2023-07-23T10:55:04.039Z,53.19
2023-07-23T10:57:32.022Z,53.05
2023-07-23T10:59:59.340Z,53.30
2023-07-23T11:02:27.258Z,52.15
2023-07-23T11:04:57.492Z,52.56
2023-07-23T11:07:28.509Z,51.78
2023-07-23T11:09:55.925Z,50.06
2023-07-23T11:12:23.970Z,51.13
2023-07-23T11:14:53.562Z,51.67
2023-07-23T11:17:20.219Z,50.03
2023-07-23T11:19:47.445Z,49.00
2023-07-23T11:22:14.309Z,50.07
2023-07-23T11:24:41.499Z,50.38
2023-07-23T11:27:11.175Z,50.61
2023-07-23T11:29:37.903Z,50.63
2023-07-23T11:32:05.235Z,49.15
2023-07-23T11:34:32.631Z,49.25
2023-07-23T11:36:59.355Z,50.47
2023-07-23T11:39:26.229Z,50.91
2023-07-23T11:41:53.887Z,49.87
2023-07-23T11:44:20.790Z,48.72
2023-07-23T11:46:47.606Z,49.87
2023-07-23T11:49:15.088Z,48.94
2023-07-23T11:51:42.290Z,49.36
2023-07-23T11:54:11.510Z,48.89
2023-07-23T11:56:42.434Z,48.54
2023-07-23T11:59:11.372Z,49.12
2023-07-23T12:01:39.510Z,49.39
2023-07-23T12:04:07.346Z,49.73
2023-07-23T12:06:41.005Z,49.79
2023-07-23T12:09:09.490Z,49.93
2023-07-23T12:11:38.977Z,50.18
2023-07-23T12:14:07.754Z,51.18
2023-07-23T12:16:34.773Z,51.31
2023-07-23T12:19:06.386Z,51.45
2023-07-23T12:21:36.058Z,50.65
2023-07-23T12:24:19.586Z,50.16
2023-07-23T12:26:48.460Z,50.92
2023-07-23T12:29:15.768Z,50.58
2023-07-23T12:31:44.042Z,50.48
2023-07-23T12:34:11.837Z,51.19
2023-07-23T12:36:39.601Z,51.16
2023-07-23T12:39:07.316Z,50.62
2023-07-23T12:41:34.255Z,50.47
2023-07-23T12:44:02.107Z,50.59
2023-07-23T12:46:29.138Z,50.36
2023-07-23T12:48:56.044Z,49.84
2023-07-23T12:51:24.147Z,49.22
2023-07-23T12:53:50.783Z,49.18
2023-07-23T12:56:17.596Z,48.60
2023-07-23T12:58:44.251Z,49.34
2023-07-23T13:01:11.030Z,50.22
2023-07-23T13:03:39.145Z,50.90
2023-07-23T13:06:06.048Z,51.68
2023-07-23T13:08:32.952Z,49.44
2023-07-23T13:10:59.828Z,50.03
2023-07-23T13:13:27.036Z,50.22
2023-07-23T13:15:53.853Z,49.98
2023-07-23T13:18:20.516Z,49.85
2023-07-23T13:20:47.264Z,49.93
2023-07-23T13:23:14.044Z,50.27
2023-07-23T13:25:40.804Z,49.23
2023-07-23T13:28:07.449Z,50.22
2023-07-23T13:30:34.298Z,51.37
2023-07-23T13:33:01.011Z,50.66
2023-07-23T13:35:27.804Z,53.07
2023-07-23T13:37:54.479Z,51.71
2023-07-23T13:40:21.492Z,51.63
2023-07-23T13:42:48.105Z,51.52
2023-07-23T13:45:15.198Z,51.25
2023-07-23T13:47:41.936Z,51.68
2023-07-23T13:50:08.892Z,51.41
2023-07-23T13:52:35.579Z,52.28
2023-07-23T13:55:03.668Z,52.50
2023-07-23T13:57:30.367Z,50.33
2023-07-23T13:59:58.379Z,49.64
2023-07-23T14:02:26.186Z,49.45
2023-07-23T14:04:53.004Z,50.28
2023-07-23T14:07:20.040Z,49.24
2023-07-23T14:09:46.825Z,49.21
2023-07-23T14:12:13.526Z,48.39
2023-07-23T14:14:40.198Z,48.24
2023-07-23T14:17:06.894Z,48.13
2023-07-23T14:19:34.215Z,47.15
2023-07-23T14:22:00.928Z,47.00
2023-07-23T14:24:27.765Z,46.58
2023-07-23T14:26:54.498Z,47.09
2023-07-23T14:29:21.247Z,47.43
2023-07-23T14:31:47.918Z,47.65
2023-07-23T14:34:14.590Z,48.17
2023-07-23T14:36:41.197Z,48.19
2023-07-23T14:39:08.534Z,48.05
2023-07-23T14:41:35.126Z,47.58
2023-07-23T14:44:01.889Z,47.54
2023-07-23T14:46:28.651Z,48.17
2023-07-23T14:48:55.482Z,48.61
2023-07-23T14:51:22.109Z,48.81
2023-07-23T14:53:50.917Z,49.10
2023-07-23T14:56:18.176Z,47.40
2023-07-23T14:58:45.160Z,47.48
2023-07-23T15:01:12.005Z,47.74
2023-07-23T15:03:38.990Z,48.43
2023-07-23T15:06:05.849Z,47.16
2023-07-23T15:08:32.553Z,46.73
2023-07-23T15:10:59.208Z,47.25
2023-07-23T15:13:26.405Z,47.68
2023-07-23T15:15:53.387Z,48.23
2023-07-23T15:18:20.331Z,47.11
2023-07-23T15:20:47.227Z,47.74
2023-07-23T15:23:14.205Z,46.55
2023-07-23T15:25:41.097Z,46.67
2023-07-23T15:28:08.447Z,46.66
2023-07-23T15:30:35.131Z,46.92
2023-07-23T15:33:02.095Z,46.81
2023-07-23T15:35:29.657Z,46.99
2023-07-23T15:37:56.313Z,47.98
2023-07-23T15:40:22.969Z,47.95
2023-07-23T15:42:49.717Z,47.88
2023-07-23T15:45:16.364Z,47.76
2023-07-23T15:47:43.222Z,48.22
2023-07-23T15:50:10.583Z,48.58
2023-07-23T15:52:37.333Z,48.29
2023-07-23T15:55:04.040Z,48.52
2023-07-23T15:57:30.732Z,48.83
2023-07-23T15:59:57.404Z,48.38
2023-07-23T16:02:24.216Z,48.61
2023-07-23T16:04:51.009Z,48.49
2023-07-23T16:07:17.685Z,48.58
2023-07-23T16:09:44.295Z,48.30
2023-07-23T16:12:11.095Z,48.23
2023-07-23T16:14:38.329Z,48.13
2023-07-23T16:17:05.170Z,49.80
2023-07-23T16:19:31.878Z,48.50
2023-07-23T16:21:58.668Z,47.85
2023-07-23T16:24:25.381Z,48.02
2023-07-23T16:26:53.837Z,47.97
2023-07-23T16:29:20.544Z,48.02
2023-07-23T16:31:47.562Z,48.52
2023-07-23T16:34:14.466Z,48.50
2023-07-23T16:36:44.546Z,48.85
2023-07-23T16:39:11.094Z,49.00
2023-07-23T16:41:37.813Z,48.40
2023-07-23T16:44:05.748Z,48.60
2023-07-23T16:46:32.394Z,48.86
2023-07-23T16:48:59.056Z,49.54
2023-07-23T16:51:25.747Z,48.58
2023-07-23T16:53:52.486Z,49.14
2023-07-23T16:56:19.233Z,48.83
2023-07-23T16:58:49.034Z,47.37
2023-07-23T17:01:15.844Z,48.59
2023-07-23T17:03:42.581Z,48.20
2023-07-23T17:06:09.280Z,48.19
2023-07-23T17:08:35.966Z,47.70
2023-07-23T17:11:14.963Z,47.84
2023-07-23T17:13:41.685Z,48.54
2023-07-23T17:16:08.341Z,48.36
2023-07-23T17:18:35.010Z,48.12
2023-07-23T17:21:01.580Z,48.08
2023-07-23T17:23:28.249Z,49.70
2023-07-23T17:25:54.897Z,48.88
2023-07-23T17:28:21.721Z,48.40
2023-07-23T17:30:59.923Z,48.18
2023-07-23T17:33:27.147Z,48.22
2023-07-23T17:35:53.981Z,47.60
2023-07-23T17:38:20.805Z,48.27
2023-07-23T17:40:48.207Z,48.21
2023-07-23T17:43:15.255Z,47.51
2023-07-23T17:45:42.417Z,47.82
2023-07-23T17:48:11.917Z,46.16
2023-07-23T17:50:41.467Z,46.20
2023-07-23T17:53:08.197Z,46.59
2023-07-23T17:55:36.366Z,47.00
2023-07-23T17:58:03.915Z,47.45
2023-07-23T18:00:31.507Z,48.05
2023-07-23T18:02:58.743Z,49.96
2023-07-23T18:05:25.713Z,48.76
2023-07-23T18:07:52.505Z,49.04
2023-07-23T18:10:20.587Z,49.67
2023-07-23T18:12:48.104Z,48.44
2023-07-23T18:15:14.934Z,50.25
2023-07-23T18:17:42.254Z,52.68
2023-07-23T18:20:10.891Z,52.21
2023-07-23T18:22:37.774Z,52.58
2023-07-23T18:25:07.444Z,53.27
2023-07-23T18:27:36.088Z,53.71
2023-07-23T18:30:03.898Z,53.24
2023-07-23T18:32:30.852Z,53.99
2023-07-23T18:34:57.598Z,56.23
2023-07-23T18:37:24.581Z,56.79
2023-07-23T18:39:52.129Z,56.01
2023-07-23T18:42:18.870Z,58.00
2023-07-23T18:44:45.541Z,57.61
2023-07-23T18:47:13.390Z,56.79
2023-07-23T18:49:40.115Z,58.52
2023-07-23T18:52:06.920Z,58.45
2023-07-23T18:54:33.650Z,58.59
2023-07-23T18:57:00.269Z,58.67
2023-07-23T18:59:26.974Z,58.30
2023-07-23T19:01:53.787Z,57.73
2023-07-23T19:04:21.268Z,58.88
2023-07-23T19:06:48.127Z,60.24
2023-07-23T19:09:14.888Z,59.13
2023-07-23T19:11:41.570Z,59.48
2023-07-23T19:14:08.221Z,59.53
2023-07-23T19:16:35.077Z,58.44
2023-07-23T19:19:01.795Z,58.97
2023-07-23T19:21:28.463Z,59.84
2023-07-23T19:23:55.239Z,60.03
2023-07-23T19:26:21.878Z,59.27
2023-07-23T19:28:48.588Z,58.57
2023-07-23T19:31:15.252Z,59.84
2023-07-23T19:33:42.006Z,58.66
2023-07-23T19:36:08.666Z,59.39
2023-07-23T19:38:35.436Z,60.16
2023-07-23T19:41:02.218Z,59.32
2023-07-23T19:43:29.009Z,60.27
2023-07-23T19:45:56.356Z,60.02
2023-07-23T19:48:23.195Z,59.42
2023-07-23T19:50:50.673Z,59.65
2023-07-23T19:53:17.365Z,60.93
2023-07-23T19:55:44.582Z,60.58
2023-07-23T19:58:11.880Z,60.39
2023-07-23T20:00:39.086Z,59.44
2023-07-23T20:03:06.261Z,58.87
2023-07-23T20:05:33.059Z,61.02
2023-07-23T20:08:00.350Z,61.05
2023-07-23T20:10:26.996Z,61.20
2023-07-23T20:12:53.779Z,61.43
2023-07-23T20:15:21.895Z,62.53
2023-07-23T20:17:48.589Z,62.11
2023-07-23T20:20:15.495Z,62.27
2023-07-23T20:22:42.249Z,61.86
2023-07-23T20:25:09.947Z,62.11
2023-07-23T20:27:36.823Z,63.07
2023-07-23T20:30:03.990Z,62.48
2023-07-23T20:32:31.638Z,62.21
2023-07-23T20:34:58.862Z,62.39
2023-07-23T20:37:25.804Z,66.29
2023-07-23T20:39:52.720Z,66.64
2023-07-23T20:42:19.730Z,67.70
2023-07-23T20:44:46.327Z,69.76
2023-07-23T20:47:13.081Z,72.30
2023-07-23T20:49:39.830Z,71.77
2023-07-23T20:52:06.561Z,72.79
2023-07-23T20:54:33.176Z,73.70
2023-07-23T20:56:59.918Z,74.15
2023-07-23T20:59:26.535Z,75.00
2023-07-23T21:01:53.200Z,75.39
2023-07-23T21:04:19.896Z,75.38
2023-07-23T21:06:46.823Z,76.74
2023-07-23T21:09:13.543Z,76.69
2023-07-23T21:11:40.227Z,76.89
2023-07-23T21:14:06.841Z,76.41
2023-07-23T21:16:33.763Z,76.03
2023-07-23T21:19:00.559Z,77.43
2023-07-23T21:21:27.275Z,77.61
2023-07-23T21:23:53.971Z,77.49
2023-07-23T21:26:20.834Z,77.76
2023-07-23T21:28:47.405Z,79.42
2023-07-23T21:31:14.138Z,80.21
2023-07-23T21:33:40.883Z,79.98
2023-07-23T21:36:07.620Z,79.61
2023-07-23T21:38:35.483Z,80.43
2023-07-23T21:41:04.215Z,80.25
2023-07-23T21:43:31.270Z,80.95
2023-07-23T21:45:58.231Z,80.42
2023-07-23T21:48:25.030Z,81.99
2023-07-23T21:50:52.004Z,81.21
2023-07-23T21:53:18.696Z,81.54
2023-07-23T21:55:45.443Z,81.48
2023-07-23T21:58:12.115Z,81.81
2023-07-23T22:00:38.748Z,82.56
2023-07-23T22:03:05.499Z,82.54
2023-07-23T22:05:32.708Z,82.81
2023-07-23T22:07:59.429Z,82.47
2023-07-23T22:10:26.946Z,81.66
2023-07-23T22:12:53.754Z,81.17
2023-07-23T22:15:20.968Z,81.99
2023-07-23T22:17:47.827Z,82.24
2023-07-23T22:20:14.603Z,81.59
2023-07-23T22:22:41.293Z,81.58
2023-07-23T22:25:08.501Z,82.09
2023-07-23T22:27:35.107Z,82.46
2023-07-23T22:30:08.923Z,81.88
2023-07-23T22:32:41.910Z,81.18
2023-07-23T22:35:08.962Z,81.13
2023-07-23T22:37:35.666Z,80.74
2023-07-23T22:40:02.401Z,79.84
2023-07-23T22:42:29.112Z,80.42
2023-07-23T22:44:55.723Z,80.67
2023-07-23T22:47:22.537Z,81.00
2023-07-23T22:49:49.282Z,82.04
2023-07-23T22:52:16.023Z,81.08
2023-07-23T22:54:42.756Z,80.55
2023-07-23T22:57:09.490Z,81.38
2023-07-23T22:59:44.475Z,83.16
2023-07-23T23:02:12.226Z,82.58
2023-07-23T23:04:38.870Z,82.72
2023-07-23T23:07:05.719Z,80.88
2023-07-23T23:09:32.624Z,81.03
2023-07-23T23:11:59.464Z,80.74
2023-07-23T23:14:26.204Z,80.13
2023-07-23T23:16:54.404Z,79.74
2023-07-23T23:19:21.041Z,79.09
2023-07-23T23:21:47.805Z,78.90
2023-07-23T23:24:14.569Z,79.02
2023-07-23T23:26:42.605Z,79.77
2023-07-23T23:29:09.363Z,79.91
2023-07-23T23:31:36.167Z,79.36
2023-07-23T23:34:02.875Z,79.10
2023-07-23T23:36:29.955Z,78.69
2023-07-23T23:38:56.956Z,80.30
2023-07-23T23:41:23.621Z,79.90
2023-07-23T23:43:50.246Z,79.74
2023-07-23T23:46:16.994Z,79.29
2023-07-23T23:48:43.687Z,79.09
2023-07-23T23:51:10.418Z,78.61
2023-07-23T23:53:37.083Z,79.29
2023-07-23T23:56:04.050Z,78.34
2023-07-23T23:58:30.675Z,78.14
